Terminal Aerodrome Forecast
Issued by NWS

Home | Current Version | Previous Version | Text Only | Print | Product List | Glossary On
Versions: 1 2 3 4 5 6 7 8 9 10 11 12 13 14 15
707
FTUS46 KSEW 282206 AAA
TAFBLI
TAF AMD
KBLI 282206Z 2822/2918 18006KT P6SM FEW035 BKN080 OVC120
      TEMPO 2822/2824 4SM -RA FEW035 OVC080
     FM290200 VRB04KT P6SM FEW035 SCT060=

USA.gov is the U.S. government's official web portal to all federal, state and local government web resources and services.